sensor_id;sensor_type;location;lat;lon;timestamp;pressure;altitude;pressure_sealevel;temperature;humidity
82266;BME280;71866;53.340;-6.308;2023-12-04T00:00:53;100059.00;;;5.16;75.51
82266;BME280;71866;53.340;-6.308;2023-12-04T00:03:21;100066.97;;;5.16;75.17
82266;BME280;71866;53.340;-6.308;2023-12-04T00:05:48;100052.00;;;5.15;75.37
82266;BME280;71866;53.340;-6.308;2023-12-04T00:08:14;100059.84;;;5.16;75.51
82266;BME280;71866;53.340;-6.308;2023-12-04T00:10:42;100044.91;;;5.15;75.90
82266;BME280;71866;53.340;-6.308;2023-12-04T00:13:09;100049.47;;;5.13;76.94
82266;BME280;71866;53.340;-6.308;2023-12-04T00:15:36;100052.00;;;5.15;76.40
82266;BME280;71866;53.340;-6.308;2023-12-04T00:18:03;100052.41;;;5.21;76.48
82266;BME280;71866;53.340;-6.308;2023-12-04T00:20:31;100042.63;;;5.22;75.67
82266;BME280;71866;53.340;-6.308;2023-12-04T00:22:58;100031.75;;;5.14;75.30
82266;BME280;71866;53.340;-6.308;2023-12-04T00:25:25;100038.63;;;5.16;75.78
82266;BME280;71866;53.340;-6.308;2023-12-04T00:27:52;100043.59;;;5.21;76.24
82266;BME280;71866;53.340;-6.308;2023-12-04T00:30:20;100027.88;;;5.18;76.58
82266;BME280;71866;53.340;-6.308;2023-12-04T00:32:46;100031.19;;;5.21;75.56
82266;BME280;71866;53.340;-6.308;2023-12-04T00:35:14;100020.44;;;5.23;76.96
82266;BME280;71866;53.340;-6.308;2023-12-04T00:37:42;100013.66;;;5.19;76.21
82266;BME280;71866;53.340;-6.308;2023-12-04T00:40:08;100012.34;;;5.24;75.59
82266;BME280;71866;53.340;-6.308;2023-12-04T00:42:36;100005.34;;;5.23;76.33
82266;BME280;71866;53.340;-6.308;2023-12-04T00:45:03;100012.22;;;5.26;75.15
82266;BME280;71866;53.340;-6.308;2023-12-04T00:47:30;100013.06;;;5.26;76.29
82266;BME280;71866;53.340;-6.308;2023-12-04T00:49:58;100008.50;;;5.28;76.99
82266;BME280;71866;53.340;-6.308;2023-12-04T00:52:24;99998.13;;;5.25;76.38
82266;BME280;71866;53.340;-6.308;2023-12-04T00:54:51;100011.84;;;5.30;76.76
82266;BME280;71866;53.340;-6.308;2023-12-04T00:57:18;100005.00;;;5.28;77.78
82266;BME280;71866;53.340;-6.308;2023-12-04T00:59:46;100002.09;;;5.31;77.63
82266;BME280;71866;53.340;-6.308;2023-12-04T01:02:13;99995.09;;;5.30;78.31
82266;BME280;71866;53.340;-6.308;2023-12-04T01:04:40;99983.63;;;5.29;78.57
82266;BME280;71866;53.340;-6.308;2023-12-04T01:07:08;99990.50;;;5.32;78.61
82266;BME280;71866;53.340;-6.308;2023-12-04T01:09:35;99981.22;;;5.26;79.00
82266;BME280;71866;53.340;-6.308;2023-12-04T01:12:03;99986.88;;;5.33;79.47
82266;BME280;71866;53.340;-6.308;2023-12-04T01:14:31;99980.72;;;5.32;79.11
82266;BME280;71866;53.340;-6.308;2023-12-04T01:16:57;99982.06;;;5.27;78.12
82266;BME280;71866;53.340;-6.308;2023-12-04T01:19:24;99978.91;;;5.33;78.79
82266;BME280;71866;53.340;-6.308;2023-12-04T01:21:52;99984.94;;;5.35;78.02
82266;BME280;71866;53.340;-6.308;2023-12-04T01:24:21;99979.63;;;5.35;76.32
82266;BME280;71866;53.340;-6.308;2023-12-04T01:26:48;99966.13;;;5.38;76.79
82266;BME280;71866;53.340;-6.308;2023-12-04T01:29:14;99961.91;;;5.36;77.08
82266;BME280;71866;53.340;-6.308;2023-12-04T01:31:42;99960.09;;;5.36;76.38
82266;BME280;71866;53.340;-6.308;2023-12-04T01:34:09;99954.66;;;5.38;77.08
82266;BME280;71866;53.340;-6.308;2023-12-04T01:36:40;99957.56;;;5.34;75.24
82266;BME280;71866;53.340;-6.308;2023-12-04T01:39:07;99944.66;;;5.30;75.07
82266;BME280;71866;53.340;-6.308;2023-12-04T01:41:35;99948.03;;;5.32;74.83
82266;BME280;71866;53.340;-6.308;2023-12-04T01:44:01;99956.47;;;5.37;74.15
82266;BME280;71866;53.340;-6.308;2023-12-04T01:46:28;99955.03;;;5.33;73.43
82266;BME280;71866;53.340;-6.308;2023-12-04T01:48:56;99949.81;;;5.43;73.73
82266;BME280;71866;53.340;-6.308;2023-12-04T01:51:26;99952.00;;;5.38;74.34
82266;BME280;71866;53.340;-6.308;2023-12-04T01:53:55;99964.91;;;5.42;75.17
82266;BME280;71866;53.340;-6.308;2023-12-04T01:56:25;99959.59;;;5.42;75.15
82266;BME280;71866;53.340;-6.308;2023-12-04T01:58:54;99953.69;;;5.39;76.55
82266;BME280;71866;53.340;-6.308;2023-12-04T02:01:21;99952.47;;;5.43;76.50
82266;BME280;71866;53.340;-6.308;2023-12-04T02:03:49;99951.50;;;5.44;77.64
82266;BME280;71866;53.340;-6.308;2023-12-04T02:06:17;99947.88;;;5.45;77.47
82266;BME280;71866;53.340;-6.308;2023-12-04T02:08:43;99960.44;;;5.43;78.54
82266;BME280;71866;53.340;-6.308;2023-12-04T02:11:11;99950.66;;;5.43;78.90
82266;BME280;71866;53.340;-6.308;2023-12-04T02:13:38;99944.50;;;5.43;79.95
82266;BME280;71866;53.340;-6.308;2023-12-04T02:16:09;99935.13;;;5.39;79.81
82266;BME280;71866;53.340;-6.308;2023-12-04T02:18:37;99946.19;;;5.44;80.09
82266;BME280;71866;53.340;-6.308;2023-12-04T02:21:04;99943.28;;;5.47;80.29
82266;BME280;71866;53.340;-6.308;2023-12-04T02:23:32;99939.66;;;5.48;79.67
82266;BME280;71866;53.340;-6.308;2023-12-04T02:26:05;99948.47;;;5.48;79.83
82266;BME280;71866;53.340;-6.308;2023-12-04T02:28:37;99941.34;;;5.49;80.53
82266;BME280;71866;53.340;-6.308;2023-12-04T02:31:05;99952.94;;;5.48;79.81
82266;BME280;71866;53.340;-6.308;2023-12-04T02:33:33;99951.00;;;5.50;79.19
82266;BME280;71866;53.340;-6.308;2023-12-04T02:36:03;99952.09;;;5.47;80.80
82266;BME280;71866;53.340;-6.308;2023-12-04T02:38:30;99954.53;;;5.39;80.91
82266;BME280;71866;53.340;-6.308;2023-12-04T02:40:57;99956.72;;;5.34;82.18
82266;BME280;71866;53.340;-6.308;2023-12-04T02:43:25;99957.22;;;5.28;81.83
82266;BME280;71866;53.340;-6.308;2023-12-04T02:45:52;99954.22;;;5.21;81.81
82266;BME280;71866;53.340;-6.308;2023-12-04T02:48:19;99949.00;;;5.20;81.45
82266;BME280;71866;53.340;-6.308;2023-12-04T02:50:46;99955.28;;;5.19;81.31
82266;BME280;71866;53.340;-6.308;2023-12-04T02:53:13;99947.81;;;5.13;81.80
82266;BME280;71866;53.340;-6.308;2023-12-04T02:55:39;99939.25;;;5.09;82.78
82266;BME280;71866;53.340;-6.308;2023-12-04T02:58:07;99938.91;;;5.02;81.86
82266;BME280;71866;53.340;-6.308;2023-12-04T03:00:35;99929.88;;;5.05;81.57
82266;BME280;71866;53.340;-6.308;2023-12-04T03:03:01;99937.81;;;5.05;82.01
82266;BME280;71866;53.340;-6.308;2023-12-04T03:05:28;99927.09;;;4.95;81.68
82266;BME280;71866;53.340;-6.308;2023-12-04T03:07:56;99928.41;;;5.01;81.84
82266;BME280;71866;53.340;-6.308;2023-12-04T03:10:23;99941.56;;;5.02;81.59
82266;BME280;71866;53.340;-6.308;2023-12-04T03:12:50;99938.19;;;5.00;82.41
82266;BME280;71866;53.340;-6.308;2023-12-04T03:15:17;99937.22;;;5.01;82.38
82266;BME280;71866;53.340;-6.308;2023-12-04T03:17:44;99936.84;;;5.06;82.51
82266;BME280;71866;53.340;-6.308;2023-12-04T03:20:11;99940.47;;;5.05;82.01
82266;BME280;71866;53.340;-6.308;2023-12-04T03:22:38;99945.06;;;5.03;81.78
82266;BME280;71866;53.340;-6.308;2023-12-04T03:25:05;99934.44;;;5.03;81.61
82266;BME280;71866;53.340;-6.308;2023-12-04T03:27:33;99940.13;;;4.98;81.57
82266;BME280;71866;53.340;-6.308;2023-12-04T03:29:59;99931.31;;;4.98;81.38
82266;BME280;71866;53.340;-6.308;2023-12-04T03:32:26;99940.97;;;4.99;81.52
82266;BME280;71866;53.340;-6.308;2023-12-04T03:34:54;99921.09;;;4.93;81.35
82266;BME280;71866;53.340;-6.308;2023-12-04T03:37:20;99925.28;;;4.96;81.20
82266;BME280;71866;53.340;-6.308;2023-12-04T03:39:47;99935.91;;;4.96;81.09
82266;BME280;71866;53.340;-6.308;2023-12-04T03:42:14;99936.88;;;4.95;81.62
82266;BME280;71866;53.340;-6.308;2023-12-04T03:44:41;99937.13;;;4.92;80.80
82266;BME280;71866;53.340;-6.308;2023-12-04T03:47:08;99930.97;;;4.91;81.42
82266;BME280;71866;53.340;-6.308;2023-12-04T03:49:35;99931.69;;;4.93;81.20
82266;BME280;71866;53.340;-6.308;2023-12-04T03:52:02;99926.63;;;4.90;81.04
82266;BME280;71866;53.340;-6.308;2023-12-04T03:54:29;99918.19;;;4.85;81.01
82266;BME280;71866;53.340;-6.308;2023-12-04T03:56:57;99933.41;;;4.83;80.44
82266;BME280;71866;53.340;-6.308;2023-12-04T03:59:23;99926.63;;;4.79;80.66
82266;BME280;71866;53.340;-6.308;2023-12-04T04:01:51;99919.63;;;4.78;81.25
82266;BME280;71866;53.340;-6.308;2023-12-04T04:04:17;99917.09;;;4.77;80.78
82266;BME280;71866;53.340;-6.308;2023-12-04T04:06:44;99921.81;;;4.73;80.79
82266;BME280;71866;53.340;-6.308;2023-12-04T04:09:12;99912.16;;;4.72;80.96
82266;BME280;71866;53.340;-6.308;2023-12-04T04:11:39;99909.88;;;4.67;80.88
82266;BME280;71866;53.340;-6.308;2023-12-04T04:14:07;99909.28;;;4.64;80.56
82266;BME280;71866;53.340;-6.308;2023-12-04T04:16:33;99903.38;;;4.60;80.89
82266;BME280;71866;53.340;-6.308;2023-12-04T04:19:00;99908.56;;;4.62;79.82
82266;BME280;71866;53.340;-6.308;2023-12-04T04:21:28;99915.06;;;4.58;79.68
82266;BME280;71866;53.340;-6.308;2023-12-04T04:23:54;99908.31;;;4.54;79.82
82266;BME280;71866;53.340;-6.308;2023-12-04T04:26:22;99898.06;;;4.49;79.69
82266;BME280;71866;53.340;-6.308;2023-12-04T04:28:50;99911.78;;;4.43;79.67
82266;BME280;71866;53.340;-6.308;2023-12-04T04:31:16;99912.88;;;4.40;79.82
82266;BME280;71866;53.340;-6.308;2023-12-04T04:33:43;99905.63;;;4.43;80.09
82266;BME280;71866;53.340;-6.308;2023-12-04T04:36:11;99918.41;;;4.37;79.43
82266;BME280;71866;53.340;-6.308;2023-12-04T04:38:39;99910.81;;;4.33;79.56
82266;BME280;71866;53.340;-6.308;2023-12-04T04:41:07;99919.59;;;4.33;78.99
82266;BME280;71866;53.340;-6.308;2023-12-04T04:43:33;99912.63;;;4.32;79.19
82266;BME280;71866;53.340;-6.308;2023-12-04T04:46:00;99897.19;;;4.26;79.43
82266;BME280;71866;53.340;-6.308;2023-12-04T04:48:28;99928.38;;;4.23;78.61
82266;BME280;71866;53.340;-6.308;2023-12-04T04:50:55;99918.75;;;4.22;79.09
82266;BME280;71866;53.340;-6.308;2023-12-04T04:53:21;99913.69;;;4.19;79.07
82266;BME280;71866;53.340;-6.308;2023-12-04T04:55:49;99919.00;;;4.19;78.78
82266;BME280;71866;53.340;-6.308;2023-12-04T04:58:16;99917.78;;;4.12;79.37
82266;BME280;71866;53.340;-6.308;2023-12-04T05:00:45;99916.81;;;4.13;79.62
82266;BME280;71866;53.340;-6.308;2023-12-04T05:03:12;99923.63;;;4.04;78.90
82266;BME280;71866;53.340;-6.308;2023-12-04T05:05:39;99919.41;;;4.01;79.53
82266;BME280;71866;53.340;-6.308;2023-12-04T05:08:06;99937.34;;;3.98;80.24
82266;BME280;71866;53.340;-6.308;2023-12-04T05:10:33;99925.56;;;4.02;79.69
82266;BME280;71866;53.340;-6.308;2023-12-04T05:13:00;99913.75;;;3.95;80.05
82266;BME280;71866;53.340;-6.308;2023-12-04T05:15:27;99926.03;;;3.96;80.37
82266;BME280;71866;53.340;-6.308;2023-12-04T05:17:53;99926.03;;;3.96;80.28
82266;BME280;71866;53.340;-6.308;2023-12-04T05:20:21;99927.09;;;3.93;80.68
82266;BME280;71866;53.340;-6.308;2023-12-04T05:22:49;99921.19;;;3.90;79.97
82266;BME280;71866;53.340;-6.308;2023-12-04T05:25:16;99912.03;;;3.83;80.11
82266;BME280;71866;53.340;-6.308;2023-12-04T05:27:43;99923.09;;;3.88;80.24
82266;BME280;71866;53.340;-6.308;2023-12-04T05:30:12;99920.13;;;3.92;80.88
82266;BME280;71866;53.340;-6.308;2023-12-04T05:32:39;99917.59;;;3.91;80.93
82266;BME280;71866;53.340;-6.308;2023-12-04T05:35:06;99921.16;;;3.79;80.64
82266;BME280;71866;53.340;-6.308;2023-12-04T05:37:34;99931.75;;;3.79;80.92
82266;BME280;71866;53.340;-6.308;2023-12-04T05:40:01;99929.84;;;3.81;80.78
82266;BME280;71866;53.340;-6.308;2023-12-04T05:42:28;99932.81;;;3.76;80.89
82266;BME280;71866;53.340;-6.308;2023-12-04T05:44:55;99929.75;;;3.69;81.12
82266;BME280;71866;53.340;-6.308;2023-12-04T05:47:22;99932.22;;;3.72;82.11
82266;BME280;71866;53.340;-6.308;2023-12-04T05:49:50;99929.34;;;3.75;80.87
82266;BME280;71866;53.340;-6.308;2023-12-04T05:52:17;99936.44;;;3.75;81.08
82266;BME280;71866;53.340;-6.308;2023-12-04T05:54:43;99932.94;;;3.74;80.97
82266;BME280;71866;53.340;-6.308;2023-12-04T05:57:11;99933.66;;;3.76;81.34
82266;BME280;71866;53.340;-6.308;2023-12-04T05:59:38;99932.72;;;3.78;81.07
82266;BME280;71866;53.340;-6.308;2023-12-04T06:02:04;99935.00;;;3.82;81.51
82266;BME280;71866;53.340;-6.308;2023-12-04T06:04:32;99935.75;;;3.84;81.42
82266;BME280;71866;53.340;-6.308;2023-12-04T06:06:59;99942.84;;;3.84;81.18
82266;BME280;71866;53.340;-6.308;2023-12-04T06:09:26;99938.38;;;3.84;81.22
82266;BME280;71866;53.340;-6.308;2023-12-04T06:11:53;99945.25;;;3.87;81.19
82266;BME280;71866;53.340;-6.308;2023-12-04T06:14:21;99949.09;;;3.83;81.53
82266;BME280;71866;53.340;-6.308;2023-12-04T06:16:47;99938.97;;;3.76;81.68
82266;BME280;71866;53.340;-6.308;2023-12-04T06:19:14;99946.91;;;3.76;81.30
82266;BME280;71866;53.340;-6.308;2023-12-04T06:21:43;99947.03;;;3.75;81.99
82266;BME280;71866;53.340;-6.308;2023-12-04T06:24:10;99944.50;;;3.73;82.39
82266;BME280;71866;53.340;-6.308;2023-12-04T06:26:41;99943.97;;;3.68;81.66
82266;BME280;71866;53.340;-6.308;2023-12-04T06:29:09;99943.41;;;3.76;81.32
82266;BME280;71866;53.340;-6.308;2023-12-04T06:31:37;99952.94;;;3.79;81.86
82266;BME280;71866;53.340;-6.308;2023-12-04T06:34:05;99952.94;;;3.79;82.38
82266;BME280;71866;53.340;-6.308;2023-12-04T06:36:37;99963.75;;;3.75;81.73
82266;BME280;71866;53.340;-6.308;2023-12-04T06:39:10;99962.09;;;3.62;82.42
82266;BME280;71866;53.340;-6.308;2023-12-04T06:41:39;99965.13;;;3.68;82.64
82266;BME280;71866;53.340;-6.308;2023-12-04T06:44:07;99957.19;;;3.68;82.51
82266;BME280;71866;53.340;-6.308;2023-12-04T06:46:37;99957.41;;;3.65;82.38
82266;BME280;71866;53.340;-6.308;2023-12-04T06:49:08;99956.34;;;3.68;83.16
82266;BME280;71866;53.340;-6.308;2023-12-04T06:51:36;99965.88;;;3.70;83.33
82266;BME280;71866;53.340;-6.308;2023-12-04T06:54:03;99963.13;;;3.72;82.65
82266;BME280;71866;53.340;-6.308;2023-12-04T06:56:29;99969.53;;;3.81;82.55
82266;BME280;71866;53.340;-6.308;2023-12-04T06:58:58;99960.25;;;3.75;82.61
82266;BME280;71866;53.340;-6.308;2023-12-04T07:01:25;99957.19;;;3.68;82.85
82266;BME280;71866;53.340;-6.308;2023-12-04T07:03:53;99966.72;;;3.71;82.82
82266;BME280;71866;53.340;-6.308;2023-12-04T07:06:20;99979.22;;;3.69;82.69
82266;BME280;71866;53.340;-6.308;2023-12-04T07:08:46;99962.47;;;3.68;83.25
82266;BME280;71866;53.340;-6.308;2023-12-04T07:11:14;99963.78;;;3.63;82.53
82266;BME280;71866;53.340;-6.308;2023-12-04T07:13:41;99960.41;;;3.61;82.82
82266;BME280;71866;53.340;-6.308;2023-12-04T07:16:08;99974.88;;;3.68;83.77
82266;BME280;71866;53.340;-6.308;2023-12-04T07:18:36;99965.69;;;3.61;83.44
82266;BME280;71866;53.340;-6.308;2023-12-04T07:21:03;99980.63;;;3.62;83.43
82266;BME280;71866;53.340;-6.308;2023-12-04T07:23:31;99978.72;;;3.64;83.38
82266;BME280;71866;53.340;-6.308;2023-12-04T07:25:57;99971.44;;;3.55;83.07
82266;BME280;71866;53.340;-6.308;2023-12-04T07:28:24;99988.44;;;3.63;83.90
82266;BME280;71866;53.340;-6.308;2023-12-04T07:30:52;99980.50;;;3.63;83.99
82266;BME280;71866;53.340;-6.308;2023-12-04T07:33:18;99986.38;;;3.56;83.87
82266;BME280;71866;53.340;-6.308;2023-12-04T07:35:46;99985.31;;;3.58;83.94
82266;BME280;71866;53.340;-6.308;2023-12-04T07:38:12;99992.41;;;3.58;84.07
82266;BME280;71866;53.340;-6.308;2023-12-04T07:40:39;99988.28;;;3.54;83.50
82266;BME280;71866;53.340;-6.308;2023-12-04T07:43:07;99988.50;;;3.51;84.26
82266;BME280;71866;53.340;-6.308;2023-12-04T07:45:33;99985.03;;;3.50;84.04
82266;BME280;71866;53.340;-6.308;2023-12-04T07:48:00;99990.09;;;3.53;83.99
82266;BME280;71866;53.340;-6.308;2023-12-04T07:50:28;99998.38;;;3.49;83.63
82266;BME280;71866;53.340;-6.308;2023-12-04T07:52:54;100004.91;;;3.56;83.83
82266;BME280;71866;53.340;-6.308;2023-12-04T07:55:21;99997.53;;;3.48;83.80
82266;BME280;71866;53.340;-6.308;2023-12-04T07:57:49;100004.06;;;3.55;84.75
82266;BME280;71866;53.340;-6.308;2023-12-04T08:00:16;100006.94;;;3.52;84.85
82266;BME280;71866;53.340;-6.308;2023-12-04T08:02:43;99989.69;;;3.47;84.62
82266;BME280;71866;53.340;-6.308;2023-12-04T08:05:12;99990.75;;;3.44;84.16
82266;BME280;71866;53.340;-6.308;2023-12-04T08:07:39;99988.22;;;3.42;84.75
82266;BME280;71866;53.340;-6.308;2023-12-04T08:10:06;100008.84;;;3.50;84.08
82266;BME280;71866;53.340;-6.308;2023-12-04T08:12:37;100011.47;;;3.50;84.84
82266;BME280;71866;53.340;-6.308;2023-12-04T08:15:04;99998.59;;;3.45;83.68
82266;BME280;71866;53.340;-6.308;2023-12-04T08:17:31;100007.03;;;3.51;83.89
82266;BME280;71866;53.340;-6.308;2023-12-04T08:20:00;100004.50;;;3.49;84.30
82266;BME280;71866;53.340;-6.308;2023-12-04T08:22:26;100013.97;;;3.40;84.09
82266;BME280;71866;53.340;-6.308;2023-12-04T08:24:54;100016.16;;;3.47;84.79
82266;BME280;71866;53.340;-6.308;2023-12-04T08:27:21;100023.34;;;3.44;84.11
82266;BME280;71866;53.340;-6.308;2023-12-04T08:29:48;100025.38;;;3.41;84.17
82266;BME280;71866;53.340;-6.308;2023-12-04T08:32:15;100017.78;;;3.36;84.01
82266;BME280;71866;53.340;-6.308;2023-12-04T08:34:43;100029.09;;;3.38;84.72
82266;BME280;71866;53.340;-6.308;2023-12-04T08:37:10;100024.03;;;3.35;83.75
82266;BME280;71866;53.340;-6.308;2023-12-04T08:39:37;100041.25;;;3.41;84.00
82266;BME280;71866;53.340;-6.308;2023-12-04T08:42:04;100037.16;;;3.37;84.30
82266;BME280;71866;53.340;-6.308;2023-12-04T08:44:40;100044.84;;;3.40;85.17
82266;BME280;71866;53.340;-6.308;2023-12-04T08:47:08;100039.22;;;3.44;84.88
82266;BME280;71866;53.340;-6.308;2023-12-04T08:49:34;100030.56;;;3.42;84.65
82266;BME280;71866;53.340;-6.308;2023-12-04T08:52:11;100022.41;;;3.33;85.42
82266;BME280;71866;53.340;-6.308;2023-12-04T08:54:39;100046.88;;;3.36;85.13
82266;BME280;71866;53.340;-6.308;2023-12-04T08:57:06;100047.41;;;3.41;84.80
82266;BME280;71866;53.340;-6.308;2023-12-04T08:59:34;100041.88;;;3.44;84.83
82266;BME280;71866;53.340;-6.308;2023-12-04T09:02:01;100048.75;;;3.47;84.50
82266;BME280;71866;53.340;-6.308;2023-12-04T09:04:27;100041.25;;;3.41;84.83
82266;BME280;71866;53.340;-6.308;2023-12-04T09:06:55;100043.28;;;3.37;84.92
82266;BME280;71866;53.340;-6.308;2023-12-04T09:09:26;100043.28;;;3.37;84.47
82266;BME280;71866;53.340;-6.308;2023-12-04T09:11:53;100046.34;;;3.31;84.80
82266;BME280;71866;53.340;-6.308;2023-12-04T09:14:20;100058.94;;;3.28;84.60
82266;BME280;71866;53.340;-6.308;2023-12-04T09:16:47;100058.72;;;3.31;85.67
82266;BME280;71866;53.340;-6.308;2023-12-04T09:19:14;100049.19;;;3.28;85.84
82266;BME280;71866;53.340;-6.308;2023-12-04T09:21:41;100044.88;;;3.27;85.56
82266;BME280;71866;53.340;-6.308;2023-12-04T09:24:08;100050.66;;;3.32;85.74
82266;BME280;71866;53.340;-6.308;2023-12-04T09:26:35;100056.06;;;3.31;84.77
82266;BME280;71866;53.340;-6.308;2023-12-04T09:29:03;100071.09;;;3.30;85.43
82266;BME280;71866;53.340;-6.308;2023-12-04T09:31:30;100061.38;;;3.31;85.25
82266;BME280;71866;53.340;-6.308;2023-12-04T09:33:57;100067.38;;;3.33;84.96
82266;BME280;71866;53.340;-6.308;2023-12-04T09:36:25;100057.25;;;3.27;85.39
82266;BME280;71866;53.340;-6.308;2023-12-04T09:38:52;100058.09;;;3.27;84.55
82266;BME280;71866;53.340;-6.308;2023-12-04T09:41:19;100045.94;;;3.25;84.48
82266;BME280;71866;53.340;-6.308;2023-12-04T09:43:47;100066.34;;;3.23;84.82
82266;BME280;71866;53.340;-6.308;2023-12-04T09:46:16;100060.31;;;3.21;84.51
82266;BME280;71866;53.340;-6.308;2023-12-04T09:48:44;100061.06;;;3.23;84.90
82266;BME280;71866;53.340;-6.308;2023-12-04T09:51:11;100058.53;;;3.21;85.65
82266;BME280;71866;53.340;-6.308;2023-12-04T09:53:39;100062.75;;;3.24;84.43
82266;BME280;71866;53.340;-6.308;2023-12-04T09:56:07;100071.31;;;3.27;85.37
82266;BME280;71866;53.340;-6.308;2023-12-04T09:58:37;100062.53;;;3.27;85.07
82266;BME280;71866;53.340;-6.308;2023-12-04T10:01:07;100079.16;;;3.29;84.11
82266;BME280;71866;53.340;-6.308;2023-12-04T10:03:35;100077.56;;;3.26;85.07
82266;BME280;71866;53.340;-6.308;2023-12-04T10:06:04;100089.63;;;3.30;84.35
82266;BME280;71866;53.340;-6.308;2023-12-04T10:08:31;100077.00;;;3.34;84.34
82266;BME280;71866;53.340;-6.308;2023-12-04T10:10:58;100086.75;;;3.33;84.31
82266;BME280;71866;53.340;-6.308;2023-12-04T10:13:27;100104.44;;;3.33;83.80
82266;BME280;71866;53.340;-6.308;2023-12-04T10:16:13;100088.88;;;3.28;84.40
82266;BME280;71866;53.340;-6.308;2023-12-04T10:18:41;100089.41;;;3.33;84.47
82266;BME280;71866;53.340;-6.308;2023-12-04T10:21:08;100091.00;;;3.36;83.78
82266;BME280;71866;53.340;-6.308;2023-12-04T10:23:43;100096.94;;;3.39;84.69
82266;BME280;71866;53.340;-6.308;2023-12-04T10:26:14;100103.81;;;3.42;83.97
82266;BME280;71866;53.340;-6.308;2023-12-04T10:28:58;100096.72;;;3.42;84.42
82266;BME280;71866;53.340;-6.308;2023-12-04T10:31:26;100099.03;;;3.47;83.14
82266;BME280;71866;53.340;-6.308;2023-12-04T10:33:52;100096.38;;;3.47;83.11
82266;BME280;71866;53.340;-6.308;2023-12-04T10:36:19;100104.84;;;3.52;83.42
82266;BME280;71866;53.340;-6.308;2023-12-04T10:38:57;100102.94;;;3.54;83.29
82266;BME280;71866;53.340;-6.308;2023-12-04T10:41:24;100104.84;;;3.52;82.63
82266;BME280;71866;53.340;-6.308;2023-12-04T10:43:52;100104.63;;;3.55;82.92
82266;BME280;71866;53.340;-6.308;2023-12-04T10:46:30;100092.22;;;3.56;83.60
82266;BME280;71866;53.340;-6.308;2023-12-04T10:48:58;100102.16;;;3.65;83.26
82266;BME280;71866;53.340;-6.308;2023-12-04T10:51:27;100111.06;;;3.64;82.51
82266;BME280;71866;53.340;-6.308;2023-12-04T10:53:53;100092.34;;;3.54;82.83
82266;BME280;71866;53.340;-6.308;2023-12-04T10:56:36;100102.56;;;3.71;82.47
82266;BME280;71866;53.340;-6.308;2023-12-04T10:59:11;100099.72;;;3.74;82.00
82266;BME280;71866;53.340;-6.308;2023-12-04T11:01:40;100098.16;;;3.72;81.48
82266;BME280;71866;53.340;-6.308;2023-12-04T11:04:13;100105.88;;;3.75;81.36
82266;BME280;71866;53.340;-6.308;2023-12-04T11:06:44;100101.19;;;3.79;81.22
82266;BME280;71866;53.340;-6.308;2023-12-04T11:09:17;100144.72;;;3.74;81.07
82266;BME280;71866;53.340;-6.308;2023-12-04T11:11:46;100107.44;;;3.78;80.86
82266;BME280;71866;53.340;-6.308;2023-12-04T11:14:18;100100.97;;;3.82;81.12
82266;BME280;71866;53.340;-6.308;2023-12-04T11:16:49;100109.41;;;3.87;81.57
82266;BME280;71866;53.340;-6.308;2023-12-04T11:19:25;100105.38;;;3.94;80.95
82266;BME280;71866;53.340;-6.308;2023-12-04T11:22:00;100107.06;;;3.95;80.66
82266;BME280;71866;53.340;-6.308;2023-12-04T11:24:27;100101.13;;;3.91;80.35
82266;BME280;71866;53.340;-6.308;2023-12-04T11:26:55;100103.56;;;3.94;81.51
82266;BME280;71866;53.340;-6.308;2023-12-04T11:29:23;100100.69;;;3.97;81.13
82266;BME280;71866;53.340;-6.308;2023-12-04T11:31:50;100118.44;;;4.08;82.01
82266;BME280;71866;53.340;-6.308;2023-12-04T11:34:18;100123.47;;;4.24;81.00
82266;BME280;71866;53.340;-6.308;2023-12-04T11:36:44;100101.94;;;4.28;80.46
82266;BME280;71866;53.340;-6.308;2023-12-04T11:39:11;100099.56;;;4.36;79.94
82266;BME280;71866;53.340;-6.308;2023-12-04T11:41:42;100090.78;;;4.36;80.40
82266;BME280;71866;53.340;-6.308;2023-12-04T11:44:12;100112.34;;;4.43;80.14
82266;BME280;71866;53.340;-6.308;2023-12-04T11:47:02;100092.47;;;4.37;79.38
82266;BME280;71866;53.340;-6.308;2023-12-04T11:49:32;100107.34;;;4.51;80.03
82266;BME280;71866;53.340;-6.308;2023-12-04T11:52:01;100110.50;;;4.56;79.80
82266;BME280;71866;53.340;-6.308;2023-12-04T11:54:28;100117.84;;;4.52;79.30
82266;BME280;71866;53.340;-6.308;2023-12-04T11:57:20;100108.81;;;4.55;79.70
82266;BME280;71866;53.340;-6.308;2023-12-04T11:59:48;100090.50;;;4.52;80.06
82266;BME280;71866;53.340;-6.308;2023-12-04T12:02:15;100100.63;;;4.58;79.93
82266;BME280;71866;53.340;-6.308;2023-12-04T12:04:43;100094.81;;;4.53;79.64
82266;BME280;71866;53.340;-6.308;2023-12-04T12:07:11;100099.44;;;4.62;80.23
82266;BME280;71866;53.340;-6.308;2023-12-04T12:09:39;100098.59;;;4.61;80.21
82266;BME280;71866;53.340;-6.308;2023-12-04T12:12:06;100097.97;;;4.58;79.93
82266;BME280;71866;53.340;-6.308;2023-12-04T12:14:33;100090.41;;;4.64;80.87
82266;BME280;71866;53.340;-6.308;2023-12-04T12:17:00;100111.75;;;4.74;80.34
82266;BME280;71866;53.340;-6.308;2023-12-04T12:19:27;100103.44;;;4.79;80.79
82266;BME280;71866;53.340;-6.308;2023-12-04T12:21:55;100110.59;;;4.89;80.45
82266;BME280;71866;53.340;-6.308;2023-12-04T12:24:24;100122.53;;;4.84;79.59
82266;BME280;71866;53.340;-6.308;2023-12-04T12:26:50;100117.00;;;4.87;80.12
82266;BME280;71866;53.340;-6.308;2023-12-04T12:29:17;100122.53;;;4.84;79.94
82266;BME280;71866;53.340;-6.308;2023-12-04T12:31:45;100118.06;;;4.84;79.48
82266;BME280;71866;53.340;-6.308;2023-12-04T12:34:15;100121.69;;;4.83;80.07
82266;BME280;71866;53.340;-6.308;2023-12-04T12:36:41;100132.19;;;4.96;80.46
82266;BME280;71866;53.340;-6.308;2023-12-04T12:39:08;100120.50;;;4.87;79.74
82266;BME280;71866;53.340;-6.308;2023-12-04T12:41:36;100134.00;;;4.95;80.33
82266;BME280;71866;53.340;-6.308;2023-12-04T12:44:03;100137.03;;;5.02;79.08
82266;BME280;71866;53.340;-6.308;2023-12-04T12:46:30;100121.59;;;5.07;79.86
82266;BME280;71866;53.340;-6.308;2023-12-04T12:48:57;100140.16;;;5.07;79.92
82266;BME280;71866;53.340;-6.308;2023-12-04T12:51:25;100130.03;;;5.12;80.03
82266;BME280;71866;53.340;-6.308;2023-12-04T12:53:52;100133.44;;;5.14;80.37
82266;BME280;71866;53.340;-6.308;2023-12-04T12:56:20;100123.53;;;5.16;80.78
82266;BME280;71866;53.340;-6.308;2023-12-04T12:58:47;100135.84;;;5.17;80.01